To NAV CANADA Home Page Login to a new session Search on AWWS site Feedback and Comments Disclaimer Vers la page française équivalente Tips FAQ What's new on the site To the Forecasts and Observations / NOTAM section To "File a Flight Plan" website Publications and other links Update of the User's profile FIC Telephone Numbers My Weather Data Folder Route Weather Data Regional Weather Data Local Weather Data To the Forecasts and Observations / NOTAM section
Request Generated 10/17/2017 at 01:51:24 UTC . Weather information available at that time is displayed.

METAR/TAF

SLAVE LAKE/AB    (show WxCam)

SPECI CYZH 170150Z AUTO 09004KT 9SM -RA BKN060 OVC077 06/05 A2957 RMK
SLP032=
SPECI CYZH 170133Z AUTO VRB02KT 9SM OVC060 06/05 A2958 RMK SLP034=
SPECI CYZH 170104Z AUTO VRB02KT 9SM -RA BKN050 OVC055 06/05 A2959 RMK
SLP037=
METAR CYZH 170100Z AUTO VRB02KT 9SM OVC050 06/05 A2959 RMK SLP038=
SPECI CYZH 170034Z AUTO 10004KT 9SM OVC050 07/05 A2959 RMK SLP039=
METAR CYZH 170000Z AUTO 11004KT 9SM -RA BKN038 OVC044 07/05 A2962 RMK
SLP047=
METAR CYZH 162300Z AUTO 25003KT 240V300 9SM -RA OVC048 08/02 A2963
RMK SLP051=

TAF CYZH 170038Z 1701/1713 VRB03KT P6SM -RA BKN040
FM170400 25008KT P6SM BKN050
RMK FCST BASED ON AUTO OBS. NXT FCST BY 170700Z=
Your time UTC time
Weather data provided by Environment Canada and NAV CANADA